sensor_id;sensor_type;location;lat;lon;timestamp;pressure;altitude;pressure_sealevel;temperature;humidity
50123;BME280;36021;48.670;6.184;2023-04-24T00:01:00;98012.56;;;11.43;100.00
50123;BME280;36021;48.670;6.184;2023-04-24T00:03:27;98020.34;;;11.41;100.00
50123;BME280;36021;48.670;6.184;2023-04-24T00:05:54;98031.88;;;11.34;100.00
50123;BME280;36021;48.670;6.184;2023-04-24T00:08:21;98039.16;;;11.13;100.00
50123;BME280;36021;48.670;6.184;2023-04-24T00:10:48;98039.16;;;11.13;100.00
50123;BME280;36021;48.670;6.184;2023-04-24T00:13:14;98046.78;;;11.16;100.00
50123;BME280;36021;48.670;6.184;2023-04-24T00:15:40;98036.69;;;11.03;100.00
50123;BME280;36021;48.670;6.184;2023-04-24T00:18:06;98043.81;;;10.87;100.00
50123;BME280;36021;48.670;6.184;2023-04-24T00:20:31;98045.09;;;10.81;100.00
50123;BME280;36021;48.670;6.184;2023-04-24T00:23:06;98046.50;;;10.61;100.00
50123;BME280;36021;48.670;6.184;2023-04-24T00:25:33;98033.34;;;10.50;100.00
50123;BME280;36021;48.670;6.184;2023-04-24T00:27:59;98032.16;;;10.42;100.00
50123;BME280;36021;48.670;6.184;2023-04-24T00:30:24;98027.94;;;10.44;100.00
50123;BME280;36021;48.670;6.184;2023-04-24T00:32:50;98037.13;;;10.31;100.00
50123;BME280;36021;48.670;6.184;2023-04-24T00:35:16;98035.00;;;10.28;100.00
50123;BME280;36021;48.670;6.184;2023-04-24T00:37:43;98030.97;;;10.34;100.00
50123;BME280;36021;48.670;6.184;2023-04-24T00:40:09;98034.06;;;10.33;100.00
50123;BME280;36021;48.670;6.184;2023-04-24T00:42:36;98038.75;;;10.32;100.00
50123;BME280;36021;48.670;6.184;2023-04-24T00:45:04;98020.75;;;10.26;100.00
50123;BME280;36021;48.670;6.184;2023-04-24T00:47:30;98032.25;;;10.28;100.00
50123;BME280;36021;48.670;6.184;2023-04-24T00:49:56;98051.81;;;10.18;100.00
50123;BME280;36021;48.670;6.184;2023-04-24T00:52:22;98051.41;;;10.33;100.00
50123;BME280;36021;48.670;6.184;2023-04-24T00:54:49;98053.66;;;10.31;100.00
50123;BME280;36021;48.670;6.184;2023-04-24T00:57:17;98049.13;;;10.35;100.00
50123;BME280;36021;48.670;6.184;2023-04-24T00:59:43;98050.78;;;10.36;100.00
50123;BME280;36021;48.670;6.184;2023-04-24T01:02:11;98047.03;;;10.32;100.00
50123;BME280;36021;48.670;6.184;2023-04-24T01:04:37;98043.09;;;10.25;100.00
50123;BME280;36021;48.670;6.184;2023-04-24T01:07:05;98056.03;;;10.24;100.00
50123;BME280;36021;48.670;6.184;2023-04-24T01:09:40;98060.69;;;10.15;100.00
50123;BME280;36021;48.670;6.184;2023-04-24T01:12:09;98055.59;;;10.31;100.00
50123;BME280;36021;48.670;6.184;2023-04-24T01:14:37;98056.28;;;10.36;100.00
50123;BME280;36021;48.670;6.184;2023-04-24T01:17:03;98057.38;;;10.27;100.00
50123;BME280;36021;48.670;6.184;2023-04-24T01:19:29;98055.19;;;10.15;100.00
50123;BME280;36021;48.670;6.184;2023-04-24T01:21:58;98043.59;;;10.27;100.00
50123;BME280;36021;48.670;6.184;2023-04-24T01:24:24;98049.69;;;10.15;100.00
50123;BME280;36021;48.670;6.184;2023-04-24T01:26:51;98062.38;;;10.25;100.00
50123;BME280;36021;48.670;6.184;2023-04-24T01:29:19;98055.72;;;10.17;100.00
50123;BME280;36021;48.670;6.184;2023-04-24T01:31:45;98056.22;;;10.28;100.00
50123;BME280;36021;48.670;6.184;2023-04-24T01:34:11;98069.31;;;10.22;100.00
50123;BME280;36021;48.670;6.184;2023-04-24T01:36:37;98067.88;;;10.25;100.00
50123;BME280;36021;48.670;6.184;2023-04-24T01:39:05;98069.81;;;10.24;100.00
50123;BME280;36021;48.670;6.184;2023-04-24T01:41:31;98074.16;;;10.17;100.00
50123;BME280;36021;48.670;6.184;2023-04-24T01:43:59;98075.94;;;10.21;100.00
50123;BME280;36021;48.670;6.184;2023-04-24T01:46:25;98074.34;;;10.20;100.00
50123;BME280;36021;48.670;6.184;2023-04-24T01:48:51;98077.34;;;10.10;100.00
50123;BME280;36021;48.670;6.184;2023-04-24T01:51:19;98079.72;;;10.03;100.00
50123;BME280;36021;48.670;6.184;2023-04-24T01:53:44;98082.31;;;10.08;100.00
50123;BME280;36021;48.670;6.184;2023-04-24T01:56:11;98079.44;;;10.13;100.00
50123;BME280;36021;48.670;6.184;2023-04-24T01:58:38;98078.38;;;10.14;100.00
50123;BME280;36021;48.670;6.184;2023-04-24T02:01:05;98079.66;;;10.17;100.00
50123;BME280;36021;48.670;6.184;2023-04-24T02:03:32;98086.84;;;10.04;100.00
50123;BME280;36021;48.670;6.184;2023-04-24T02:05:58;98088.47;;;10.05;100.00
50123;BME280;36021;48.670;6.184;2023-04-24T02:08:25;98090.25;;;10.01;100.00
50123;BME280;36021;48.670;6.184;2023-04-24T02:10:51;98095.78;;;10.10;100.00
50123;BME280;36021;48.670;6.184;2023-04-24T02:13:17;98097.88;;;10.04;100.00
50123;BME280;36021;48.670;6.184;2023-04-24T02:15:43;98092.91;;;9.92;100.00
50123;BME280;36021;48.670;6.184;2023-04-24T02:18:08;98091.72;;;9.85;100.00
50123;BME280;36021;48.670;6.184;2023-04-24T02:20:34;98088.03;;;9.67;100.00
50123;BME280;36021;48.670;6.184;2023-04-24T02:23:01;98099.88;;;9.68;100.00
50123;BME280;36021;48.670;6.184;2023-04-24T02:25:27;98089.69;;;9.68;100.00
50123;BME280;36021;48.670;6.184;2023-04-24T02:27:55;98095.09;;;9.60;100.00
50123;BME280;36021;48.670;6.184;2023-04-24T02:30:21;98100.72;;;9.55;100.00
50123;BME280;36021;48.670;6.184;2023-04-24T02:32:46;98106.19;;;9.68;100.00
50123;BME280;36021;48.670;6.184;2023-04-24T02:35:12;98102.09;;;9.66;100.00
50123;BME280;36021;48.670;6.184;2023-04-24T02:37:39;98100.91;;;9.58;100.00
50123;BME280;36021;48.670;6.184;2023-04-24T02:40:05;98112.13;;;9.62;100.00
50123;BME280;36021;48.670;6.184;2023-04-24T02:42:32;98111.59;;;9.60;100.00
50123;BME280;36021;48.670;6.184;2023-04-24T02:44:58;98110.97;;;9.63;100.00
50123;BME280;36021;48.670;6.184;2023-04-24T02:47:24;98109.47;;;9.57;100.00
50123;BME280;36021;48.670;6.184;2023-04-24T02:49:50;98112.72;;;9.59;100.00
50123;BME280;36021;48.670;6.184;2023-04-24T02:52:15;98106.41;;;9.58;100.00
50123;BME280;36021;48.670;6.184;2023-04-24T02:54:42;98114.69;;;9.58;100.00
50123;BME280;36021;48.670;6.184;2023-04-24T02:57:09;98109.47;;;9.57;100.00
50123;BME280;36021;48.670;6.184;2023-04-24T02:59:37;98107.84;;;9.56;100.00
50123;BME280;36021;48.670;6.184;2023-04-24T03:02:04;98110.91;;;9.54;100.00
50123;BME280;36021;48.670;6.184;2023-04-24T03:04:31;98110.72;;;9.51;100.00
50123;BME280;36021;48.670;6.184;2023-04-24T03:06:58;98116.94;;;9.42;100.00
50123;BME280;36021;48.670;6.184;2023-04-24T03:09:25;98120.50;;;9.43;100.00
50123;BME280;36021;48.670;6.184;2023-04-24T03:11:52;98124.19;;;9.38;100.00
50123;BME280;36021;48.670;6.184;2023-04-24T03:14:17;98123.56;;;9.41;100.00
50123;BME280;36021;48.670;6.184;2023-04-24T03:16:43;98122.81;;;9.50;100.00
50123;BME280;36021;48.670;6.184;2023-04-24T03:19:08;98127.34;;;9.46;100.00
50123;BME280;36021;48.670;6.184;2023-04-24T03:21:41;98138.03;;;9.47;100.00
50123;BME280;36021;48.670;6.184;2023-04-24T03:24:08;98138.03;;;9.47;100.00
50123;BME280;36021;48.670;6.184;2023-04-24T03:26:36;98133.72;;;9.55;100.00
50123;BME280;36021;48.670;6.184;2023-04-24T03:29:15;98134.34;;;9.52;100.00
50123;BME280;36021;48.670;6.184;2023-04-24T03:31:41;98129.91;;;9.42;100.00
50123;BME280;36021;48.670;6.184;2023-04-24T03:34:07;98148.63;;;9.40;100.00
50123;BME280;36021;48.670;6.184;2023-04-24T03:36:33;98150.69;;;9.34;100.00
50123;BME280;36021;48.670;6.184;2023-04-24T03:38:59;98162.69;;;9.38;100.00
50123;BME280;36021;48.670;6.184;2023-04-24T03:41:31;98168.19;;;9.38;100.00
50123;BME280;36021;48.670;6.184;2023-04-24T03:44:08;98163.00;;;9.37;100.00
50123;BME280;36021;48.670;6.184;2023-04-24T03:46:34;98160.03;;;9.33;100.00
50123;BME280;36021;48.670;6.184;2023-04-24T03:49:01;98178.28;;;9.29;100.00
50123;BME280;36021;48.670;6.184;2023-04-24T03:51:31;98168.22;;;9.25;100.00
50123;BME280;36021;48.670;6.184;2023-04-24T03:54:06;98181.84;;;9.16;100.00
50123;BME280;36021;48.670;6.184;2023-04-24T03:56:36;98177.28;;;9.12;100.00
50123;BME280;36021;48.670;6.184;2023-04-24T03:59:02;98179.81;;;9.08;100.00
50123;BME280;36021;48.670;6.184;2023-04-24T04:01:29;98174.75;;;9.15;100.00
50123;BME280;36021;48.670;6.184;2023-04-24T04:04:04;98174.75;;;9.15;100.00
50123;BME280;36021;48.670;6.184;2023-04-24T04:06:31;98174.22;;;9.13;100.00
50123;BME280;36021;48.670;6.184;2023-04-24T04:08:59;98177.78;;;9.14;100.00
50123;BME280;36021;48.670;6.184;2023-04-24T04:11:25;98181.66;;;9.13;100.00
50123;BME280;36021;48.670;6.184;2023-04-24T04:13:50;98191.72;;;9.17;100.00
50123;BME280;36021;48.670;6.184;2023-04-24T04:16:19;98189.59;;;9.14;100.00
50123;BME280;36021;48.670;6.184;2023-04-24T04:18:46;98191.22;;;9.15;100.00
50123;BME280;36021;48.670;6.184;2023-04-24T04:21:12;98187.88;;;9.05;100.00
50123;BME280;36021;48.670;6.184;2023-04-24T04:23:38;98192.88;;;9.03;100.00
50123;BME280;36021;48.670;6.184;2023-04-24T04:26:18;98194.06;;;9.10;100.00
50123;BME280;36021;48.670;6.184;2023-04-24T04:28:58;98197.94;;;9.09;100.00
50123;BME280;36021;48.670;6.184;2023-04-24T04:31:23;98195.28;;;9.04;100.00
50123;BME280;36021;48.670;6.184;2023-04-24T04:33:50;98198.56;;;9.06;100.00
50123;BME280;36021;48.670;6.184;2023-04-24T04:36:16;98205.44;;;8.90;100.00
50123;BME280;36021;48.670;6.184;2023-04-24T04:38:49;98209.13;;;8.85;100.00
50123;BME280;36021;48.670;6.184;2023-04-24T04:41:29;98213.19;;;8.88;100.00
50123;BME280;36021;48.670;6.184;2023-04-24T04:43:56;98215.09;;;8.74;100.00
50123;BME280;36021;48.670;6.184;2023-04-24T04:46:24;98221.94;;;8.76;100.00
50123;BME280;36021;48.670;6.184;2023-04-24T04:49:02;98219.88;;;8.68;100.00
50123;BME280;36021;48.670;6.184;2023-04-24T04:51:28;98212.34;;;8.60;100.00
50123;BME280;36021;48.670;6.184;2023-04-24T04:53:54;98217.84;;;8.60;100.00
50123;BME280;36021;48.670;6.184;2023-04-24T04:56:20;98221.69;;;8.59;100.00
50123;BME280;36021;48.670;6.184;2023-04-24T04:58:49;98219.78;;;8.60;100.00
50123;BME280;36021;48.670;6.184;2023-04-24T05:01:16;98235.13;;;8.61;100.00
50123;BME280;36021;48.670;6.184;2023-04-24T05:03:45;98231.81;;;8.45;100.00
50123;BME280;36021;48.670;6.184;2023-04-24T05:06:13;98236.53;;;8.58;100.00
50123;BME280;36021;48.670;6.184;2023-04-24T05:08:43;98243.03;;;8.49;100.00
50123;BME280;36021;48.670;6.184;2023-04-24T05:11:15;98244.50;;;8.60;100.00
50123;BME280;36021;48.670;6.184;2023-04-24T05:13:41;98255.22;;;8.43;100.00
50123;BME280;36021;48.670;6.184;2023-04-24T05:16:17;98256.97;;;8.52;100.00
50123;BME280;36021;48.670;6.184;2023-04-24T05:18:43;98257.13;;;8.42;100.00
50123;BME280;36021;48.670;6.184;2023-04-24T05:21:12;98257.78;;;8.53;100.00
50123;BME280;36021;48.670;6.184;2023-04-24T05:23:41;98273.75;;;8.51;100.00
50123;BME280;36021;48.670;6.184;2023-04-24T05:26:06;98272.94;;;8.50;100.00
50123;BME280;36021;48.670;6.184;2023-04-24T05:28:32;98264.59;;;8.55;100.00
50123;BME280;36021;48.670;6.184;2023-04-24T05:31:05;98277.28;;;8.51;100.00
50123;BME280;36021;48.670;6.184;2023-04-24T05:33:31;98274.16;;;8.44;100.00
50123;BME280;36021;48.670;6.184;2023-04-24T05:35:57;98282.72;;;8.56;100.00
50123;BME280;36021;48.670;6.184;2023-04-24T05:38:24;98285.16;;;8.58;100.00
50123;BME280;36021;48.670;6.184;2023-04-24T05:40:50;98292.72;;;8.66;100.00
50123;BME280;36021;48.670;6.184;2023-04-24T05:43:17;98303.09;;;8.69;100.00
50123;BME280;36021;48.670;6.184;2023-04-24T05:45:42;98304.31;;;8.63;100.00
50123;BME280;36021;48.670;6.184;2023-04-24T05:48:08;98310.25;;;8.70;100.00
50123;BME280;36021;48.670;6.184;2023-04-24T05:50:33;98310.78;;;8.53;100.00
50123;BME280;36021;48.670;6.184;2023-04-24T05:52:59;98313.22;;;8.55;100.00
50123;BME280;36021;48.670;6.184;2023-04-24T05:55:30;98331.06;;;8.57;100.00
50123;BME280;36021;48.670;6.184;2023-04-24T05:57:55;98326.34;;;8.58;100.00
50123;BME280;36021;48.670;6.184;2023-04-24T06:00:22;98339.47;;;8.61;100.00
50123;BME280;36021;48.670;6.184;2023-04-24T06:02:57;98332.38;;;8.60;100.00
50123;BME280;36021;48.670;6.184;2023-04-24T06:05:22;98335.13;;;8.60;100.00
50123;BME280;36021;48.670;6.184;2023-04-24T06:07:51;98340.53;;;8.65;100.00
50123;BME280;36021;48.670;6.184;2023-04-24T06:10:16;98344.69;;;8.62;100.00
50123;BME280;36021;48.670;6.184;2023-04-24T06:12:43;98341.78;;;8.72;100.00
50123;BME280;36021;48.670;6.184;2023-04-24T06:15:14;98351.34;;;8.75;100.00
50123;BME280;36021;48.670;6.184;2023-04-24T06:17:49;98349.03;;;8.82;100.00
50123;BME280;36021;48.670;6.184;2023-04-24T06:20:16;98352.38;;;8.79;100.00
50123;BME280;36021;48.670;6.184;2023-04-24T06:22:42;98349.63;;;8.79;100.00
50123;BME280;36021;48.670;6.184;2023-04-24T06:25:09;98349.47;;;8.89;100.00
50123;BME280;36021;48.670;6.184;2023-04-24T06:27:36;98355.47;;;8.91;100.00
50123;BME280;36021;48.670;6.184;2023-04-24T06:30:02;98370.03;;;8.92;100.00
50123;BME280;36021;48.670;6.184;2023-04-24T06:32:28;98360.53;;;8.84;100.00
50123;BME280;36021;48.670;6.184;2023-04-24T06:34:54;98365.09;;;8.75;100.00
50123;BME280;36021;48.670;6.184;2023-04-24T06:37:20;98375.41;;;8.83;100.00
50123;BME280;36021;48.670;6.184;2023-04-24T06:39:45;98384.53;;;8.78;100.00
50123;BME280;36021;48.670;6.184;2023-04-24T06:42:11;98393.44;;;8.89;100.00
50123;BME280;36021;48.670;6.184;2023-04-24T06:44:38;98398.94;;;8.89;100.00
50123;BME280;36021;48.670;6.184;2023-04-24T06:47:06;98403.03;;;8.73;100.00
50123;BME280;36021;48.670;6.184;2023-04-24T06:49:34;98409.03;;;8.75;100.00
50123;BME280;36021;48.670;6.184;2023-04-24T06:51:59;98410.59;;;8.81;100.00
50123;BME280;36021;48.670;6.184;2023-04-24T06:54:25;98413.94;;;8.59;100.00
50123;BME280;36021;48.670;6.184;2023-04-24T06:56:50;98417.28;;;8.75;100.00
50123;BME280;36021;48.670;6.184;2023-04-24T06:59:18;98417.50;;;8.78;100.00
50123;BME280;36021;48.670;6.184;2023-04-24T07:01:43;98432.13;;;8.74;100.00
50123;BME280;36021;48.670;6.184;2023-04-24T07:04:09;98436.63;;;8.83;100.00
50123;BME280;36021;48.670;6.184;2023-04-24T07:06:37;98443.19;;;8.87;100.00
50123;BME280;36021;48.670;6.184;2023-04-24T07:09:03;98433.38;;;8.81;100.00
50123;BME280;36021;48.670;6.184;2023-04-24T07:11:29;98440.69;;;8.72;100.00
50123;BME280;36021;48.670;6.184;2023-04-24T07:13:55;98439.25;;;8.75;100.00
50123;BME280;36021;48.670;6.184;2023-04-24T07:16:20;98447.44;;;8.80;100.00
50123;BME280;36021;48.670;6.184;2023-04-24T07:18:46;98436.81;;;8.92;100.00
50123;BME280;36021;48.670;6.184;2023-04-24T07:21:11;98440.38;;;8.93;100.00
50123;BME280;36021;48.670;6.184;2023-04-24T07:23:39;98440.59;;;8.96;100.00
50123;BME280;36021;48.670;6.184;2023-04-24T07:26:07;98447.94;;;8.82;100.00
50123;BME280;36021;48.670;6.184;2023-04-24T07:28:32;98457.84;;;8.83;100.00
50123;BME280;36021;48.670;6.184;2023-04-24T07:30:58;98460.19;;;8.71;100.00
50123;BME280;36021;48.670;6.184;2023-04-24T07:33:25;98458.25;;;8.90;100.00
50123;BME280;36021;48.670;6.184;2023-04-24T07:35:51;98459.16;;;9.04;100.00
50123;BME280;36021;48.670;6.184;2023-04-24T07:38:17;98456.78;;;9.30;100.00
50123;BME280;36021;48.670;6.184;2023-04-24T07:40:46;98465.69;;;9.40;100.00
50123;BME280;36021;48.670;6.184;2023-04-24T07:43:12;98447.38;;;9.50;100.00
50123;BME280;36021;48.670;6.184;2023-04-24T07:45:37;98455.69;;;9.77;100.00
50123;BME280;36021;48.670;6.184;2023-04-24T07:48:04;98453.03;;;9.72;100.00
50123;BME280;36021;48.670;6.184;2023-04-24T07:50:30;98457.16;;;9.88;100.00
50123;BME280;36021;48.670;6.184;2023-04-24T07:52:56;98465.53;;;10.10;100.00
50123;BME280;36021;48.670;6.184;2023-04-24T07:55:21;98463.28;;;10.12;100.00
50123;BME280;36021;48.670;6.184;2023-04-24T07:57:47;98463.09;;;10.22;100.00
50123;BME280;36021;48.670;6.184;2023-04-24T08:00:13;98465.94;;;10.44;100.00
50123;BME280;36021;48.670;6.184;2023-04-24T08:02:39;98474.03;;;10.27;100.00
50123;BME280;36021;48.670;6.184;2023-04-24T08:05:05;98478.97;;;10.12;100.00
50123;BME280;36021;48.670;6.184;2023-04-24T08:07:31;98477.00;;;9.85;100.00
50123;BME280;36021;48.670;6.184;2023-04-24T08:09:56;98485.38;;;9.80;100.00
50123;BME280;36021;48.670;6.184;2023-04-24T08:12:22;98482.25;;;10.00;100.00
50123;BME280;36021;48.670;6.184;2023-04-24T08:14:48;98483.09;;;9.82;100.00
50123;BME280;36021;48.670;6.184;2023-04-24T08:17:13;98483.28;;;10.04;100.00
50123;BME280;36021;48.670;6.184;2023-04-24T08:19:40;98492.66;;;10.44;100.00
50123;BME280;36021;48.670;6.184;2023-04-24T08:22:09;98501.66;;;10.50;100.00
50123;BME280;36021;48.670;6.184;2023-04-24T08:24:36;98487.34;;;10.48;100.00
50123;BME280;36021;48.670;6.184;2023-04-24T08:27:01;98501.47;;;10.46;100.00
50123;BME280;36021;48.670;6.184;2023-04-24T08:29:27;98503.50;;;10.27;100.00
50123;BME280;36021;48.670;6.184;2023-04-24T08:31:53;98499.41;;;10.24;100.00
50123;BME280;36021;48.670;6.184;2023-04-24T08:34:20;98514.31;;;10.23;100.00
50123;BME280;36021;48.670;6.184;2023-04-24T08:36:45;98509.81;;;10.14;100.00
50123;BME280;36021;48.670;6.184;2023-04-24T08:39:11;98513.56;;;10.18;100.00
50123;BME280;36021;48.670;6.184;2023-04-24T08:41:36;98513.41;;;10.14;100.00
50123;BME280;36021;48.670;6.184;2023-04-24T08:44:04;98514.47;;;10.13;100.00
50123;BME280;36021;48.670;6.184;2023-04-24T08:46:30;98513.69;;;10.26;100.00
50123;BME280;36021;48.670;6.184;2023-04-24T08:48:56;98518.09;;;10.27;100.00
50123;BME280;36021;48.670;6.184;2023-04-24T08:51:22;98516.06;;;10.47;100.00
50123;BME280;36021;48.670;6.184;2023-04-24T08:53:50;98512.47;;;10.32;100.00
50123;BME280;36021;48.670;6.184;2023-04-24T08:56:17;98503.44;;;10.81;100.00
50123;BME280;36021;48.670;6.184;2023-04-24T08:58:44;98492.28;;;11.22;100.00
50123;BME280;36021;48.670;6.184;2023-04-24T09:01:09;98499.69;;;11.13;100.00
50123;BME280;36021;48.670;6.184;2023-04-24T09:03:35;98509.72;;;11.09;100.00
50123;BME280;36021;48.670;6.184;2023-04-24T09:06:01;98506.88;;;11.36;100.00
50123;BME280;36021;48.670;6.184;2023-04-24T09:08:30;98505.22;;;11.35;100.00
50123;BME280;36021;48.670;6.184;2023-04-24T09:10:58;98501.16;;;11.55;100.00
50123;BME280;36021;48.670;6.184;2023-04-24T09:13:24;98503.00;;;11.82;100.00
50123;BME280;36021;48.670;6.184;2023-04-24T09:15:50;98503.00;;;11.82;100.00
50123;BME280;36021;48.670;6.184;2023-04-24T09:18:15;98504.22;;;12.29;100.00
50123;BME280;36021;48.670;6.184;2023-04-24T09:20:57;98496.31;;;12.44;100.00
50123;BME280;36021;48.670;6.184;2023-04-24T09:23:25;98505.31;;;11.88;100.00
50123;BME280;36021;48.670;6.184;2023-04-24T09:25:53;98522.47;;;11.19;100.00
50123;BME280;36021;48.670;6.184;2023-04-24T09:28:19;98516.66;;;11.07;100.00
50123;BME280;36021;48.670;6.184;2023-04-24T09:31:01;98517.41;;;11.34;100.00
50123;BME280;36021;48.670;6.184;2023-04-24T09:33:26;98519.72;;;11.63;100.00
50123;BME280;36021;48.670;6.184;2023-04-24T09:35:53;98516.34;;;11.88;100.00
50123;BME280;36021;48.670;6.184;2023-04-24T09:38:19;98534.84;;;11.43;100.00
50123;BME280;36021;48.670;6.184;2023-04-24T09:40:55;98521.56;;;11.68;100.00
50123;BME280;36021;48.670;6.184;2023-04-24T09:43:26;98532.31;;;11.33;100.00
50123;BME280;36021;48.670;6.184;2023-04-24T09:45:53;98524.50;;;11.49;100.00
50123;BME280;36021;48.670;6.184;2023-04-24T09:48:20;98518.91;;;11.40;100.00
50123;BME280;36021;48.670;6.184;2023-04-24T09:50:54;98527.56;;;11.47;100.00
50123;BME280;36021;48.670;6.184;2023-04-24T09:53:23;98534.72;;;11.48;100.00
50123;BME280;36021;48.670;6.184;2023-04-24T09:55:49;98543.25;;;11.74;100.00
50123;BME280;36021;48.670;6.184;2023-04-24T09:58:17;98537.84;;;11.33;100.00
50123;BME280;36021;48.670;6.184;2023-04-24T10:00:43;98540.38;;;11.66;100.00
50123;BME280;36021;48.670;6.184;2023-04-24T10:03:11;98538.69;;;12.00;100.00
50123;BME280;36021;48.670;6.184;2023-04-24T10:05:37;98554.69;;;11.68;100.00
50123;BME280;36021;48.670;6.184;2023-04-24T10:08:11;98551.13;;;11.31;100.00
50123;BME280;36021;48.670;6.184;2023-04-24T10:10:38;98556.19;;;11.52;100.00
50123;BME280;36021;48.670;6.184;2023-04-24T10:13:04;98553.16;;;11.39;100.00
50123;BME280;36021;48.670;6.184;2023-04-24T10:15:30;98562.19;;;11.31;100.00
50123;BME280;36021;48.670;6.184;2023-04-24T10:17:55;98575.34;;;11.34;100.00
50123;BME280;36021;48.670;6.184;2023-04-24T10:20:23;98574.47;;;11.25;100.00
50123;BME280;36021;48.670;6.184;2023-04-24T10:22:50;98569.59;;;11.44;100.00
50123;BME280;36021;48.670;6.184;2023-04-24T10:25:18;98568.75;;;11.80;100.00
50123;BME280;36021;48.670;6.184;2023-04-24T10:27:44;98573.78;;;11.78;100.00
50123;BME280;36021;48.670;6.184;2023-04-24T10:30:11;98574.34;;;11.52;100.00
50123;BME280;36021;48.670;6.184;2023-04-24T10:32:37;98575.81;;;11.50;100.00
50123;BME280;36021;48.670;6.184;2023-04-24T10:35:03;98585.97;;;11.77;100.00
50123;BME280;36021;48.670;6.184;2023-04-24T10:37:29;98584.84;;;11.78;100.00
50123;BME280;36021;48.670;6.184;2023-04-24T10:40:00;98581.81;;;11.16;100.00
50123;BME280;36021;48.670;6.184;2023-04-24T10:42:26;98579.19;;;11.11;100.00
50123;BME280;36021;48.670;6.184;2023-04-24T10:44:53;98587.13;;;11.48;100.00
50123;BME280;36021;48.670;6.184;2023-04-24T10:47:20;98589.09;;;11.48;100.00
50123;BME280;36021;48.670;6.184;2023-04-24T10:49:46;98583.06;;;11.82;100.00
50123;BME280;36021;48.670;6.184;2023-04-24T10:52:11;98590.56;;;11.68;100.00
50123;BME280;36021;48.670;6.184;2023-04-24T10:54:41;98582.94;;;11.87;100.00
50123;BME280;36021;48.670;6.184;2023-04-24T10:57:28;98581.69;;;11.71;100.00
50123;BME280;36021;48.670;6.184;2023-04-24T11:00:15;98568.22;;;12.22;100.00
50123;BME280;36021;48.670;6.184;2023-04-24T11:02:41;98581.66;;;12.15;100.00
50123;BME280;36021;48.670;6.184;2023-04-24T11:05:14;98573.13;;;12.56;100.00
50123;BME280;36021;48.670;6.184;2023-04-24T11:10:46;98571.81;;;12.23;100.00
50123;BME280;36021;48.670;6.184;2023-04-24T11:13:20;98584.75;;;12.44;100.00
50123;BME280;36021;48.670;6.184;2023-04-24T11:15:48;98564.91;;;12.42;100.00
50123;BME280;36021;48.670;6.184;2023-04-24T11:18:38;98564.56;;;12.35;100.00
50123;BME280;36021;48.670;6.184;2023-04-24T11:21:11;98577.19;;;12.28;100.00
50123;BME280;36021;48.670;6.184;2023-04-24T11:23:39;98582.59;;;12.33;100.00
50123;BME280;36021;48.670;6.184;2023-04-24T11:26:19;98582.81;;;12.93;100.00
50123;BME280;36021;48.670;6.184;2023-04-24T11:28:50;98586.88;;;12.87;100.00
50123;BME280;36021;48.670;6.184;2023-04-24T11:34:08;98579.38;;;13.52;100.00
50123;BME280;36021;48.670;6.184;2023-04-24T11:36:34;98579.75;;;13.03;100.00
50123;BME280;36021;48.670;6.184;2023-04-24T11:39:00;98580.03;;;12.76;100.00
50123;BME280;36021;48.670;6.184;2023-04-24T11:41:26;98590.16;;;12.89;100.00
50123;BME280;36021;48.670;6.184;2023-04-24T11:43:53;98583.91;;;12.75;100.00
50123;BME280;36021;48.670;6.184;2023-04-24T11:46:22;98586.38;;;12.45;100.00
50123;BME280;36021;48.670;6.184;2023-04-24T11:48:48;98602.06;;;12.06;100.00
50123;BME280;36021;48.670;6.184;2023-04-24T11:51:14;98593.59;;;12.02;100.00
50123;BME280;36021;48.670;6.184;2023-04-24T11:53:39;98587.06;;;11.98;100.00
50123;BME280;36021;48.670;6.184;2023-04-24T11:56:05;98606.22;;;12.17;100.00
50123;BME280;36021;48.670;6.184;2023-04-24T11:58:36;98599.84;;;12.38;100.00
50123;BME280;36021;48.670;6.184;2023-04-24T12:01:02;98588.19;;;12.50;100.00
50123;BME280;36021;48.670;6.184;2023-04-24T12:03:28;98580.59;;;12.56;100.00
50123;BME280;36021;48.670;6.184;2023-04-24T12:06:04;98569.50;;;13.03;100.00
50123;BME280;36021;48.670;6.184;2023-04-24T12:08:33;98571.22;;;13.30;100.00
50123;BME280;36021;48.670;6.184;2023-04-24T12:11:00;98576.94;;;13.60;100.00
50123;BME280;36021;48.670;6.184;2023-04-24T12:13:26;98580.69;;;13.55;100.00
50123;BME280;36021;48.670;6.184;2023-04-24T12:15:51;98585.38;;;13.20;100.00
50123;BME280;36021;48.670;6.184;2023-04-24T12:18:17;98582.69;;;12.98;100.00
50123;BME280;36021;48.670;6.184;2023-04-24T12:20:43;98586.56;;;12.88;100.00
50123;BME280;36021;48.670;6.184;2023-04-24T12:23:10;98589.25;;;12.63;100.00
50123;BME280;36021;48.670;6.184;2023-04-24T12:25:36;98583.81;;;12.49;100.00
50123;BME280;36021;48.670;6.184;2023-04-24T12:30:30;98580.47;;;12.69;100.00
50123;BME280;36021;48.670;6.184;2023-04-24T12:32:59;98586.31;;;14.27;100.00
50123;BME280;36021;48.670;6.184;2023-04-24T12:35:27;98574.81;;;14.72;100.00
50123;BME280;36021;48.670;6.184;2023-04-24T12:37:52;98578.19;;;14.77;100.00
50123;BME280;36021;48.670;6.184;2023-04-24T12:40:19;98580.97;;;14.77;100.00
50123;BME280;36021;48.670;6.184;2023-04-24T12:42:47;98590.91;;;14.23;100.00
50123;BME280;36021;48.670;6.184;2023-04-24T12:45:13;98584.13;;;13.61;100.00
50123;BME280;36021;48.670;6.184;2023-04-24T12:47:39;98582.47;;;13.42;100.00
50123;BME280;36021;48.670;6.184;2023-04-24T12:50:06;98585.88;;;13.39;100.00
50123;BME280;36021;48.670;6.184;2023-04-24T12:52:31;98580.00;;;13.32;100.00
50123;BME280;36021;48.670;6.184;2023-04-24T12:54:58;98588.78;;;13.17;100.00
50123;BME280;36021;48.670;6.184;2023-04-24T12:57:24;98572.66;;;13.19;100.00
50123;BME280;36021;48.670;6.184;2023-04-24T12:59:55;98605.22;;;12.74;100.00
50123;BME280;36021;48.670;6.184;2023-04-24T13:02:22;98584.00;;;12.52;100.00
50123;BME280;36021;48.670;6.184;2023-04-24T13:04:47;98592.19;;;12.35;100.00